sensor_id;sensor_type;location;lat;lon;timestamp;temperature;humidity
12849;DHT22;6493;50.928;7.172;2023-07-08T00:03:03;19.00;35.60
12849;DHT22;6493;50.928;7.172;2023-07-08T00:08:11;19.00;35.60
12849;DHT22;6493;50.928;7.172;2023-07-08T00:13:16;18.90;35.90
12849;DHT22;6493;50.928;7.172;2023-07-08T00:18:21;18.90;35.80
12849;DHT22;6493;50.928;7.172;2023-07-08T00:23:26;18.90;35.90
12849;DHT22;6493;50.928;7.172;2023-07-08T00:28:30;18.80;35.80
12849;DHT22;6493;50.928;7.172;2023-07-08T00:33:33;18.90;35.90
12849;DHT22;6493;50.928;7.172;2023-07-08T00:38:38;18.80;35.90
12849;DHT22;6493;50.928;7.172;2023-07-08T00:43:49;18.80;36.10
12849;DHT22;6493;50.928;7.172;2023-07-08T00:49:00;18.80;36.20
12849;DHT22;6493;50.928;7.172;2023-07-08T00:54:10;18.70;36.30
12849;DHT22;6493;50.928;7.172;2023-07-08T00:59:19;18.70;36.20
12849;DHT22;6493;50.928;7.172;2023-07-08T01:04:28;18.70;36.40
12849;DHT22;6493;50.928;7.172;2023-07-08T01:09:37;18.70;36.50
12849;DHT22;6493;50.928;7.172;2023-07-08T01:14:42;18.60;36.60
12849;DHT22;6493;50.928;7.172;2023-07-08T01:19:47;18.60;36.50
12849;DHT22;6493;50.928;7.172;2023-07-08T01:24:52;18.50;36.70
12849;DHT22;6493;50.928;7.172;2023-07-08T01:29:56;18.50;36.80
12849;DHT22;6493;50.928;7.172;2023-07-08T01:35:00;18.50;36.90
12849;DHT22;6493;50.928;7.172;2023-07-08T01:40:22;18.50;37.00
12849;DHT22;6493;50.928;7.172;2023-07-08T01:45:28;18.40;37.10
12849;DHT22;6493;50.928;7.172;2023-07-08T01:50:36;18.40;37.10
12849;DHT22;6493;50.928;7.172;2023-07-08T01:55:44;18.40;37.20
12849;DHT22;6493;50.928;7.172;2023-07-08T02:00:47;18.40;37.30
12849;DHT22;6493;50.928;7.172;2023-07-08T02:05:51;18.40;37.20
12849;DHT22;6493;50.928;7.172;2023-07-08T02:10:58;18.40;37.20
12849;DHT22;6493;50.928;7.172;2023-07-08T02:16:06;18.40;37.20
12849;DHT22;6493;50.928;7.172;2023-07-08T02:21:10;18.30;37.20
12849;DHT22;6493;50.928;7.172;2023-07-08T02:26:16;18.30;37.20
12849;DHT22;6493;50.928;7.172;2023-07-08T02:31:20;18.20;37.30
12849;DHT22;6493;50.928;7.172;2023-07-08T02:36:27;18.20;37.20
12849;DHT22;6493;50.928;7.172;2023-07-08T02:41:32;18.20;37.40
12849;DHT22;6493;50.928;7.172;2023-07-08T02:46:36;18.10;37.40
12849;DHT22;6493;50.928;7.172;2023-07-08T02:51:41;18.10;37.50
12849;DHT22;6493;50.928;7.172;2023-07-08T02:56:45;18.00;37.40
12849;DHT22;6493;50.928;7.172;2023-07-08T03:01:49;18.00;37.50
12849;DHT22;6493;50.928;7.172;2023-07-08T03:06:53;17.90;37.50
12849;DHT22;6493;50.928;7.172;2023-07-08T03:11:58;17.90;37.70
12849;DHT22;6493;50.928;7.172;2023-07-08T03:17:04;17.80;37.70
12849;DHT22;6493;50.928;7.172;2023-07-08T03:22:08;17.80;37.80
12849;DHT22;6493;50.928;7.172;2023-07-08T03:27:14;17.70;37.70
12849;DHT22;6493;50.928;7.172;2023-07-08T03:32:19;17.70;37.80
12849;DHT22;6493;50.928;7.172;2023-07-08T03:37:23;17.60;37.80
12849;DHT22;6493;50.928;7.172;2023-07-08T03:42:28;17.60;37.80
12849;DHT22;6493;50.928;7.172;2023-07-08T03:47:32;17.60;37.80
12849;DHT22;6493;50.928;7.172;2023-07-08T03:52:36;17.60;37.80
12849;DHT22;6493;50.928;7.172;2023-07-08T03:57:42;17.60;37.90
12849;DHT22;6493;50.928;7.172;2023-07-08T04:02:47;17.60;37.90
12849;DHT22;6493;50.928;7.172;2023-07-08T04:07:55;17.60;37.80
12849;DHT22;6493;50.928;7.172;2023-07-08T04:13:00;17.60;37.80
12849;DHT22;6493;50.928;7.172;2023-07-08T04:18:04;17.70;38.50
12849;DHT22;6493;50.928;7.172;2023-07-08T04:23:08;17.70;37.90
12849;DHT22;6493;50.928;7.172;2023-07-08T04:28:13;17.70;38.10
12849;DHT22;6493;50.928;7.172;2023-07-08T04:33:16;17.80;38.20
12849;DHT22;6493;50.928;7.172;2023-07-08T04:38:23;18.00;38.50
12849;DHT22;6493;50.928;7.172;2023-07-08T04:43:29;18.20;38.90
12849;DHT22;6493;50.928;7.172;2023-07-08T04:48:33;18.50;39.30
12849;DHT22;6493;50.928;7.172;2023-07-08T04:53:37;19.00;39.60
12849;DHT22;6493;50.928;7.172;2023-07-08T04:58:42;19.50;39.60
12849;DHT22;6493;50.928;7.172;2023-07-08T05:03:45;20.10;39.70
12849;DHT22;6493;50.928;7.172;2023-07-08T05:08:49;20.70;39.60
12849;DHT22;6493;50.928;7.172;2023-07-08T05:13:54;21.30;39.10
12849;DHT22;6493;50.928;7.172;2023-07-08T05:18:58;21.60;37.90
12849;DHT22;6493;50.928;7.172;2023-07-08T05:24:02;21.80;38.00
12849;DHT22;6493;50.928;7.172;2023-07-08T05:29:07;22.10;38.50
12849;DHT22;6493;50.928;7.172;2023-07-08T05:34:11;22.50;38.50
12849;DHT22;6493;50.928;7.172;2023-07-08T05:39:15;22.70;37.30
12849;DHT22;6493;50.928;7.172;2023-07-08T05:44:20;22.60;36.60
12849;DHT22;6493;50.928;7.172;2023-07-08T05:49:23;22.30;36.10
12849;DHT22;6493;50.928;7.172;2023-07-08T05:54:27;22.00;36.10
12849;DHT22;6493;50.928;7.172;2023-07-08T05:59:32;21.60;36.20
12849;DHT22;6493;50.928;7.172;2023-07-08T06:04:37;21.40;36.50
12849;DHT22;6493;50.928;7.172;2023-07-08T06:09:41;21.20;36.60
12849;DHT22;6493;50.928;7.172;2023-07-08T06:14:46;21.10;36.60
12849;DHT22;6493;50.928;7.172;2023-07-08T06:19:49;21.00;37.00
12849;DHT22;6493;50.928;7.172;2023-07-08T06:24:53;21.20;37.80
12849;DHT22;6493;50.928;7.172;2023-07-08T06:29:58;21.70;38.40
12849;DHT22;6493;50.928;7.172;2023-07-08T06:35:02;22.30;38.40
12849;DHT22;6493;50.928;7.172;2023-07-08T06:40:07;22.90;38.20
12849;DHT22;6493;50.928;7.172;2023-07-08T06:45:12;23.20;37.50
12849;DHT22;6493;50.928;7.172;2023-07-08T06:50:16;23.40;37.10
12849;DHT22;6493;50.928;7.172;2023-07-08T06:55:19;23.60;37.10
12849;DHT22;6493;50.928;7.172;2023-07-08T07:00:25;23.90;37.30
12849;DHT22;6493;50.928;7.172;2023-07-08T07:05:29;24.40;37.20
12849;DHT22;6493;50.928;7.172;2023-07-08T07:10:32;24.80;37.00
12849;DHT22;6493;50.928;7.172;2023-07-08T07:15:40;25.20;36.40
12849;DHT22;6493;50.928;7.172;2023-07-08T07:20:48;25.30;35.80
12849;DHT22;6493;50.928;7.172;2023-07-08T07:25:52;25.30;35.30
12849;DHT22;6493;50.928;7.172;2023-07-08T07:30:58;25.30;35.50
12849;DHT22;6493;50.928;7.172;2023-07-08T07:36:02;25.20;35.40
12849;DHT22;6493;50.928;7.172;2023-07-08T07:41:06;25.00;34.70
12849;DHT22;6493;50.928;7.172;2023-07-08T07:46:13;24.70;34.40
12849;DHT22;6493;50.928;7.172;2023-07-08T07:51:17;24.40;34.50
12849;DHT22;6493;50.928;7.172;2023-07-08T07:56:21;24.20;35.10
12849;DHT22;6493;50.928;7.172;2023-07-08T08:01:29;24.20;35.30
12849;DHT22;6493;50.928;7.172;2023-07-08T08:06:33;24.40;35.50
12849;DHT22;6493;50.928;7.172;2023-07-08T08:11:36;24.50;35.30
12849;DHT22;6493;50.928;7.172;2023-07-08T08:16:41;24.70;35.20
12849;DHT22;6493;50.928;7.172;2023-07-08T08:21:45;24.90;35.10
12849;DHT22;6493;50.928;7.172;2023-07-08T08:26:48;25.00;34.90
12849;DHT22;6493;50.928;7.172;2023-07-08T08:31:53;25.20;34.90
12849;DHT22;6493;50.928;7.172;2023-07-08T08:36:57;25.40;34.90
12849;DHT22;6493;50.928;7.172;2023-07-08T08:42:01;25.60;35.10
12849;DHT22;6493;50.928;7.172;2023-07-08T08:47:14;25.80;35.10
12849;DHT22;6493;50.928;7.172;2023-07-08T08:52:20;26.00;34.60
12849;DHT22;6493;50.928;7.172;2023-07-08T08:57:32;26.10;34.70
12849;DHT22;6493;50.928;7.172;2023-07-08T09:02:42;26.40;34.70
12849;DHT22;6493;50.928;7.172;2023-07-08T09:08:00;26.60;34.30
12849;DHT22;6493;50.928;7.172;2023-07-08T09:13:08;26.80;34.40
12849;DHT22;6493;50.928;7.172;2023-07-08T09:18:23;26.90;34.20
12849;DHT22;6493;50.928;7.172;2023-07-08T09:23:30;27.00;32.90
12849;DHT22;6493;50.928;7.172;2023-07-08T09:28:37;27.10;33.40
12849;DHT22;6493;50.928;7.172;2023-07-08T09:33:42;27.20;33.30
12849;DHT22;6493;50.928;7.172;2023-07-08T09:38:48;27.30;33.40
12849;DHT22;6493;50.928;7.172;2023-07-08T09:44:05;27.50;33.40
12849;DHT22;6493;50.928;7.172;2023-07-08T09:49:16;27.60;33.20
12849;DHT22;6493;50.928;7.172;2023-07-08T09:54:22;27.80;32.80
12849;DHT22;6493;50.928;7.172;2023-07-08T09:59:31;27.90;32.70
12849;DHT22;6493;50.928;7.172;2023-07-08T10:04:38;28.10;32.80
12849;DHT22;6493;50.928;7.172;2023-07-08T10:09:42;28.20;32.70
12849;DHT22;6493;50.928;7.172;2023-07-08T10:14:48;28.30;32.70
12849;DHT22;6493;50.928;7.172;2023-07-08T10:19:54;28.50;32.60
12849;DHT22;6493;50.928;7.172;2023-07-08T10:25:11;28.70;32.30
12849;DHT22;6493;50.928;7.172;2023-07-08T10:30:21;28.80;32.40
12849;DHT22;6493;50.928;7.172;2023-07-08T10:35:28;29.00;32.60
12849;DHT22;6493;50.928;7.172;2023-07-08T10:40:45;29.20;32.50
12849;DHT22;6493;50.928;7.172;2023-07-08T10:45:59;29.30;30.80
12849;DHT22;6493;50.928;7.172;2023-07-08T10:51:16;29.50;31.00
12849;DHT22;6493;50.928;7.172;2023-07-08T10:56:29;29.60;31.10
12849;DHT22;6493;50.928;7.172;2023-07-08T11:01:41;29.70;31.20
12849;DHT22;6493;50.928;7.172;2023-07-08T11:06:53;29.90;31.20
12849;DHT22;6493;50.928;7.172;2023-07-08T11:12:01;30.00;30.70
12849;DHT22;6493;50.928;7.172;2023-07-08T11:17:11;30.10;30.60
12849;DHT22;6493;50.928;7.172;2023-07-08T11:22:22;30.20;30.40
12849;DHT22;6493;50.928;7.172;2023-07-08T11:27:28;30.30;30.70
12849;DHT22;6493;50.928;7.172;2023-07-08T11:32:34;30.40;30.70
12849;DHT22;6493;50.928;7.172;2023-07-08T11:37:40;30.50;30.50
12849;DHT22;6493;50.928;7.172;2023-07-08T11:42:48;30.60;29.60
12849;DHT22;6493;50.928;7.172;2023-07-08T11:48:09;30.60;29.80
12849;DHT22;6493;50.928;7.172;2023-07-08T11:53:34;30.60;29.80
12849;DHT22;6493;50.928;7.172;2023-07-08T12:04:25;30.70;29.20
12849;DHT22;6493;50.928;7.172;2023-07-08T12:09:37;30.70;29.20
12849;DHT22;6493;50.928;7.172;2023-07-08T12:14:41;30.80;29.50
12849;DHT22;6493;50.928;7.172;2023-07-08T12:19:47;30.90;29.50
12849;DHT22;6493;50.928;7.172;2023-07-08T12:24:53;31.00;29.40
12849;DHT22;6493;50.928;7.172;2023-07-08T12:29:57;31.10;29.60
12849;DHT22;6493;50.928;7.172;2023-07-08T12:35:02;31.10;29.20
12849;DHT22;6493;50.928;7.172;2023-07-08T12:40:11;31.20;29.30
12849;DHT22;6493;50.928;7.172;2023-07-08T12:45:17;31.20;29.30
12849;DHT22;6493;50.928;7.172;2023-07-08T12:50:21;31.30;29.30
12849;DHT22;6493;50.928;7.172;2023-07-08T12:55:27;31.30;29.20
12849;DHT22;6493;50.928;7.172;2023-07-08T13:00:32;31.30;29.00
12849;DHT22;6493;50.928;7.172;2023-07-08T13:05:38;31.30;29.10
12849;DHT22;6493;50.928;7.172;2023-07-08T13:10:44;31.30;29.00
12849;DHT22;6493;50.928;7.172;2023-07-08T13:15:50;31.30;29.10
12849;DHT22;6493;50.928;7.172;2023-07-08T13:20:55;31.30;29.10
12849;DHT22;6493;50.928;7.172;2023-07-08T13:26:10;31.30;29.10
12849;DHT22;6493;50.928;7.172;2023-07-08T13:31:16;31.30;28.80
12849;DHT22;6493;50.928;7.172;2023-07-08T13:36:33;31.30;28.80
12849;DHT22;6493;50.928;7.172;2023-07-08T13:41:42;31.30;28.70
12849;DHT22;6493;50.928;7.172;2023-07-08T13:46:52;31.30;28.60
12849;DHT22;6493;50.928;7.172;2023-07-08T13:52:06;31.30;28.70
12849;DHT22;6493;50.928;7.172;2023-07-08T13:57:14;31.30;29.00
12849;DHT22;6493;50.928;7.172;2023-07-08T14:02:23;31.30;28.70
12849;DHT22;6493;50.928;7.172;2023-07-08T14:07:32;31.30;28.70
12849;DHT22;6493;50.928;7.172;2023-07-08T14:12:37;31.30;28.60
12849;DHT22;6493;50.928;7.172;2023-07-08T14:17:41;31.30;28.60
12849;DHT22;6493;50.928;7.172;2023-07-08T14:22:45;31.30;28.60
12849;DHT22;6493;50.928;7.172;2023-07-08T14:27:51;31.20;28.60
12849;DHT22;6493;50.928;7.172;2023-07-08T14:32:54;31.10;28.40
12849;DHT22;6493;50.928;7.172;2023-07-08T14:37:58;31.00;28.50
12849;DHT22;6493;50.928;7.172;2023-07-08T14:43:06;31.00;28.80
12849;DHT22;6493;50.928;7.172;2023-07-08T14:48:11;31.10;28.70
12849;DHT22;6493;50.928;7.172;2023-07-08T14:53:19;31.10;28.80
12849;DHT22;6493;50.928;7.172;2023-07-08T14:58:26;31.10;28.80
12849;DHT22;6493;50.928;7.172;2023-07-08T15:03:31;31.10;28.80
12849;DHT22;6493;50.928;7.172;2023-07-08T15:08:34;31.20;28.80
12849;DHT22;6493;50.928;7.172;2023-07-08T15:13:40;31.20;28.80
12849;DHT22;6493;50.928;7.172;2023-07-08T15:18:45;31.10;28.80
12849;DHT22;6493;50.928;7.172;2023-07-08T15:23:50;31.10;28.70
12849;DHT22;6493;50.928;7.172;2023-07-08T15:28:55;31.00;28.70
12849;DHT22;6493;50.928;7.172;2023-07-08T15:33:59;30.90;28.70
12849;DHT22;6493;50.928;7.172;2023-07-08T15:39:02;30.80;28.90
12849;DHT22;6493;50.928;7.172;2023-07-08T15:44:10;30.60;28.90
12849;DHT22;6493;50.928;7.172;2023-07-08T15:49:16;30.60;29.00
12849;DHT22;6493;50.928;7.172;2023-07-08T15:54:20;30.60;29.10
12849;DHT22;6493;50.928;7.172;2023-07-08T15:59:27;30.50;29.20
12849;DHT22;6493;50.928;7.172;2023-07-08T16:04:33;30.50;29.30
12849;DHT22;6493;50.928;7.172;2023-07-08T16:09:38;30.50;29.30
12849;DHT22;6493;50.928;7.172;2023-07-08T16:14:43;30.40;29.40
12849;DHT22;6493;50.928;7.172;2023-07-08T16:19:47;30.40;29.50
12849;DHT22;6493;50.928;7.172;2023-07-08T16:24:51;30.30;29.60
12849;DHT22;6493;50.928;7.172;2023-07-08T16:29:56;30.20;29.60
12849;DHT22;6493;50.928;7.172;2023-07-08T16:35:00;30.10;29.70
12849;DHT22;6493;50.928;7.172;2023-07-08T16:40:04;30.00;29.70
12849;DHT22;6493;50.928;7.172;2023-07-08T16:45:12;29.80;29.80
12849;DHT22;6493;50.928;7.172;2023-07-08T16:50:20;29.70;30.00
12849;DHT22;6493;50.928;7.172;2023-07-08T16:55:24;29.50;30.00
12849;DHT22;6493;50.928;7.172;2023-07-08T17:00:30;29.40;30.00
12849;DHT22;6493;50.928;7.172;2023-07-08T17:05:35;29.30;30.20
12849;DHT22;6493;50.928;7.172;2023-07-08T17:10:39;29.20;30.30
12849;DHT22;6493;50.928;7.172;2023-07-08T17:15:44;29.10;30.70
12849;DHT22;6493;50.928;7.172;2023-07-08T17:20:50;29.10;31.20
12849;DHT22;6493;50.928;7.172;2023-07-08T17:25:54;29.00;31.40
12849;DHT22;6493;50.928;7.172;2023-07-08T17:30:59;28.90;31.30
12849;DHT22;6493;50.928;7.172;2023-07-08T17:36:09;28.80;31.80
12849;DHT22;6493;50.928;7.172;2023-07-08T17:41:15;28.60;32.50
12849;DHT22;6493;50.928;7.172;2023-07-08T17:46:23;28.40;32.10
12849;DHT22;6493;50.928;7.172;2023-07-08T17:51:28;28.00;33.20
12849;DHT22;6493;50.928;7.172;2023-07-08T17:56:35;27.60;34.70
12849;DHT22;6493;50.928;7.172;2023-07-08T18:01:40;26.80;34.60
12849;DHT22;6493;50.928;7.172;2023-07-08T18:06:44;26.10;35.10
12849;DHT22;6493;50.928;7.172;2023-07-08T18:11:48;25.50;35.00
12849;DHT22;6493;50.928;7.172;2023-07-08T18:16:53;25.00;34.90
12849;DHT22;6493;50.928;7.172;2023-07-08T18:22:02;24.70;35.00
12849;DHT22;6493;50.928;7.172;2023-07-08T18:27:07;24.50;35.30
12849;DHT22;6493;50.928;7.172;2023-07-08T18:32:13;24.40;35.40
12849;DHT22;6493;50.928;7.172;2023-07-08T18:37:16;24.40;35.40
12849;DHT22;6493;50.928;7.172;2023-07-08T18:42:20;24.30;36.10
12849;DHT22;6493;50.928;7.172;2023-07-08T18:47:25;24.30;36.00
12849;DHT22;6493;50.928;7.172;2023-07-08T18:52:29;24.10;37.00
12849;DHT22;6493;50.928;7.172;2023-07-08T18:57:33;24.00;36.40
12849;DHT22;6493;50.928;7.172;2023-07-08T19:02:45;23.90;36.60
12849;DHT22;6493;50.928;7.172;2023-07-08T19:07:50;23.80;37.00
12849;DHT22;6493;50.928;7.172;2023-07-08T19:12:54;23.80;36.80
12849;DHT22;6493;50.928;7.172;2023-07-08T19:17:59;23.80;36.90
12849;DHT22;6493;50.928;7.172;2023-07-08T19:23:05;23.80;37.00
12849;DHT22;6493;50.928;7.172;2023-07-08T19:28:12;23.80;37.10
12849;DHT22;6493;50.928;7.172;2023-07-08T19:33:17;23.80;37.20
12849;DHT22;6493;50.928;7.172;2023-07-08T19:38:21;23.70;37.20
12849;DHT22;6493;50.928;7.172;2023-07-08T19:43:25;23.60;37.80
12849;DHT22;6493;50.928;7.172;2023-07-08T19:48:30;23.50;37.50
12849;DHT22;6493;50.928;7.172;2023-07-08T19:53:34;23.40;37.60
12849;DHT22;6493;50.928;7.172;2023-07-08T19:58:39;23.30;37.90
12849;DHT22;6493;50.928;7.172;2023-07-08T20:03:44;23.10;37.80
12849;DHT22;6493;50.928;7.172;2023-07-08T20:08:48;23.10;38.30
12849;DHT22;6493;50.928;7.172;2023-07-08T20:13:53;23.00;38.20
12849;DHT22;6493;50.928;7.172;2023-07-08T20:18:58;23.00;38.80
12849;DHT22;6493;50.928;7.172;2023-07-08T20:24:02;22.90;38.70
12849;DHT22;6493;50.928;7.172;2023-07-08T20:29:14;22.80;38.80
12849;DHT22;6493;50.928;7.172;2023-07-08T20:34:19;22.80;39.60
12849;DHT22;6493;50.928;7.172;2023-07-08T20:39:23;22.70;39.10
12849;DHT22;6493;50.928;7.172;2023-07-08T20:44:30;22.80;39.80
12849;DHT22;6493;50.928;7.172;2023-07-08T20:49:35;22.70;39.70
12849;DHT22;6493;50.928;7.172;2023-07-08T20:54:39;22.70;39.90
12849;DHT22;6493;50.928;7.172;2023-07-08T20:59:43;22.60;40.30
12849;DHT22;6493;50.928;7.172;2023-07-08T21:04:48;22.60;39.90
12849;DHT22;6493;50.928;7.172;2023-07-08T21:09:51;22.60;39.80
12849;DHT22;6493;50.928;7.172;2023-07-08T21:14:55;22.50;39.80
12849;DHT22;6493;50.928;7.172;2023-07-08T21:20:00;22.50;40.00
12849;DHT22;6493;50.928;7.172;2023-07-08T21:25:04;22.50;40.00
12849;DHT22;6493;50.928;7.172;2023-07-08T21:30:16;22.50;40.00
12849;DHT22;6493;50.928;7.172;2023-07-08T21:35:22;22.50;40.10
12849;DHT22;6493;50.928;7.172;2023-07-08T21:40:32;22.50;40.10
12849;DHT22;6493;50.928;7.172;2023-07-08T21:45:38;22.40;40.10
12849;DHT22;6493;50.928;7.172;2023-07-08T21:50:45;22.50;40.00
12849;DHT22;6493;50.928;7.172;2023-07-08T21:55:49;22.50;40.10
12849;DHT22;6493;50.928;7.172;2023-07-08T22:00:54;22.50;40.10
12849;DHT22;6493;50.928;7.172;2023-07-08T22:06:00;22.50;40.20
12849;DHT22;6493;50.928;7.172;2023-07-08T22:11:12;22.50;40.10
12849;DHT22;6493;50.928;7.172;2023-07-08T22:16:18;22.40;40.20
12849;DHT22;6493;50.928;7.172;2023-07-08T22:21:28;22.40;40.20
12849;DHT22;6493;50.928;7.172;2023-07-08T22:26:34;22.30;40.20
12849;DHT22;6493;50.928;7.172;2023-07-08T22:31:43;22.20;40.30
12849;DHT22;6493;50.928;7.172;2023-07-08T22:36:48;22.20;40.30
12849;DHT22;6493;50.928;7.172;2023-07-08T22:41:53;22.10;40.40
12849;DHT22;6493;50.928;7.172;2023-07-08T22:46:57;22.00;40.30
12849;DHT22;6493;50.928;7.172;2023-07-08T22:52:05;22.00;40.40
12849;DHT22;6493;50.928;7.172;2023-07-08T22:57:09;21.90;40.50
12849;DHT22;6493;50.928;7.172;2023-07-08T23:02:12;21.80;40.50
12849;DHT22;6493;50.928;7.172;2023-07-08T23:07:18;21.80;40.60
12849;DHT22;6493;50.928;7.172;2023-07-08T23:12:22;21.80;40.70
12849;DHT22;6493;50.928;7.172;2023-07-08T23:17:26;21.80;40.70
12849;DHT22;6493;50.928;7.172;2023-07-08T23:22:31;21.70;41.30
12849;DHT22;6493;50.928;7.172;2023-07-08T23:27:34;21.70;40.90
12849;DHT22;6493;50.928;7.172;2023-07-08T23:32:39;21.60;40.90
12849;DHT22;6493;50.928;7.172;2023-07-08T23:37:45;21.50;40.90
12849;DHT22;6493;50.928;7.172;2023-07-08T23:42:49;21.40;41.10
12849;DHT22;6493;50.928;7.172;2023-07-08T23:47:55;21.40;41.10
12849;DHT22;6493;50.928;7.172;2023-07-08T23:53:01;21.40;41.30
12849;DHT22;6493;50.928;7.172;2023-07-08T23:58:09;21.30;41.30
